createdAt,value
2022-12-28T00:01:50.393Z,41.53
2022-12-28T00:04:18.149Z,40.40
2022-12-28T00:06:47.388Z,42.43
2022-12-28T00:09:16.283Z,41.43
2022-12-28T00:11:43.903Z,41.17
2022-12-28T00:14:11.514Z,41.27
2022-12-28T00:16:40.683Z,40.63
2022-12-28T00:19:12.278Z,42.00
2022-12-28T00:21:40.180Z,42.70
2022-12-28T00:24:08.925Z,39.70
2022-12-28T00:26:37.926Z,40.13
2022-12-28T00:29:05.950Z,40.60
2022-12-28T00:31:34.504Z,40.23
2022-12-28T00:34:02.421Z,38.13
2022-12-28T00:37:12.224Z,38.90
2022-12-28T00:39:17.601Z,39.97
2022-12-28T00:41:46.990Z,38.63
2022-12-28T00:44:14.645Z,38.50
2022-12-28T00:46:42.536Z,40.20
2022-12-28T00:49:10.125Z,41.60
2022-12-28T00:51:37.674Z,40.97
2022-12-28T00:54:05.458Z,42.10
2022-12-28T00:56:33.047Z,40.23
2022-12-28T00:59:01.963Z,40.73
2022-12-28T01:01:30.346Z,39.83
2022-12-28T01:03:58.868Z,39.83
2022-12-28T01:06:27.139Z,40.70
2022-12-28T01:08:55.565Z,39.10
2022-12-28T01:11:25.171Z,38.00
2022-12-28T01:13:54.825Z,38.47
2022-12-28T01:16:26.024Z,37.80
2022-12-28T01:18:55.023Z,39.30
2022-12-28T01:21:25.450Z,39.93
2022-12-28T01:23:56.164Z,38.73
2022-12-28T01:26:24.669Z,38.40
2022-12-28T01:28:52.629Z,38.20
2022-12-28T01:31:22.093Z,38.50
2022-12-28T01:33:51.471Z,37.90
2022-12-28T01:36:22.107Z,36.70
2022-12-28T01:38:53.559Z,37.80
2022-12-28T01:41:21.684Z,37.00
2022-12-28T01:44:27.823Z,35.87
2022-12-28T01:47:01.783Z,35.43
2022-12-28T01:49:33.217Z,36.40
2022-12-28T01:52:05.934Z,34.47
2022-12-28T01:54:38.514Z,32.80
2022-12-28T01:57:06.201Z,33.97
2022-12-28T01:59:38.553Z,33.60
2022-12-28T02:02:08.087Z,32.90
2022-12-28T02:04:36.082Z,33.77
2022-12-28T02:07:04.065Z,32.60
2022-12-28T02:09:38.133Z,32.57
2022-12-28T02:12:07.323Z,29.80
2022-12-28T02:14:35.556Z,31.77
2022-12-28T02:17:03.234Z,31.27
2022-12-28T02:19:39.058Z,30.53
2022-12-28T02:22:29.090Z,33.27
2022-12-28T02:25:14.390Z,29.27
2022-12-28T02:27:55.775Z,30.37
2022-12-28T02:30:24.914Z,29.67
2022-12-28T02:33:00.718Z,30.33
2022-12-28T02:35:35.124Z,30.40
2022-12-28T02:38:08.613Z,29.70
2022-12-28T02:40:42.304Z,29.80
2022-12-28T02:43:10.083Z,28.73
2022-12-28T02:45:59.028Z,30.57
2022-12-28T02:48:45.185Z,31.43
2022-12-28T02:51:32.391Z,30.57
2022-12-28T02:54:39.977Z,29.90
2022-12-28T02:57:18.765Z,30.63
2022-12-28T03:00:00.468Z,31.60
2022-12-28T03:02:42.999Z,31.33
2022-12-28T03:05:15.913Z,31.40
2022-12-28T03:08:10.976Z,31.97
2022-12-28T03:10:47.591Z,29.77
2022-12-28T03:13:37.157Z,31.50
2022-12-28T03:16:09.209Z,31.10
2022-12-28T03:18:58.146Z,30.70
2022-12-28T03:21:45.206Z,31.67
2022-12-28T03:24:34.964Z,30.77
2022-12-28T03:27:21.853Z,31.10
2022-12-28T03:30:11.495Z,31.97
2022-12-28T03:32:39.358Z,31.33
2022-12-28T03:35:09.130Z,33.13
2022-12-28T03:37:42.486Z,32.37
2022-12-28T03:40:22.128Z,31.97
2022-12-28T03:43:09.355Z,32.27
2022-12-28T03:45:46.612Z,31.40
2022-12-28T03:48:16.645Z,33.43
2022-12-28T03:50:49.171Z,32.67
2022-12-28T03:53:18.015Z,32.47
2022-12-28T03:55:45.639Z,31.80
2022-12-28T03:58:13.205Z,32.67
2022-12-28T04:00:40.748Z,31.80
2022-12-28T04:03:08.333Z,32.53
2022-12-28T04:05:36.065Z,33.33
2022-12-28T04:08:05.344Z,32.53
2022-12-28T04:10:32.918Z,32.63
2022-12-28T04:13:00.528Z,34.13
2022-12-28T04:15:28.094Z,32.47
2022-12-28T04:17:55.636Z,32.97
2022-12-28T04:20:23.164Z,33.13
2022-12-28T04:22:50.768Z,34.17
2022-12-28T04:25:19.995Z,33.97
2022-12-28T04:27:47.590Z,32.97
2022-12-28T04:30:15.137Z,33.03
2022-12-28T04:32:42.720Z,33.27
2022-12-28T04:35:10.633Z,32.87
2022-12-28T04:37:38.478Z,33.20
2022-12-28T04:40:07.187Z,34.87
2022-12-28T04:42:36.127Z,33.20
2022-12-28T04:45:03.894Z,34.37
2022-12-28T04:47:31.456Z,32.60
2022-12-28T04:49:58.995Z,34.13
2022-12-28T04:52:26.583Z,33.33
2022-12-28T04:54:54.119Z,34.17
2022-12-28T04:57:21.725Z,35.00
2022-12-28T04:59:51.005Z,34.07
2022-12-28T05:02:18.677Z,32.93
2022-12-28T05:04:46.379Z,32.93
2022-12-28T05:07:13.998Z,33.83
2022-12-28T05:09:41.526Z,33.50
2022-12-28T05:12:09.175Z,33.10
2022-12-28T05:14:37.284Z,32.83
2022-12-28T05:17:06.820Z,33.47
2022-12-28T05:19:34.419Z,35.13
2022-12-28T05:22:02.052Z,33.20
2022-12-28T05:24:29.867Z,33.13
2022-12-28T05:26:57.871Z,32.63
2022-12-28T05:29:25.559Z,33.20
2022-12-28T05:31:53.205Z,34.90
2022-12-28T05:34:22.163Z,34.87
2022-12-28T05:36:49.730Z,34.33
2022-12-28T05:39:17.323Z,33.13
2022-12-28T05:41:44.908Z,33.30
2022-12-28T05:44:12.466Z,32.13
2022-12-28T05:46:40.285Z,32.70
2022-12-28T05:49:09.313Z,32.60
2022-12-28T05:51:39.966Z,31.80
2022-12-28T05:54:07.900Z,33.17
2022-12-28T05:56:36.383Z,32.57
2022-12-28T05:59:06.830Z,33.03
2022-12-28T06:01:37.352Z,33.87
2022-12-28T06:04:07.098Z,33.53
2022-12-28T06:06:36.073Z,34.47
2022-12-28T06:09:05.603Z,33.77
2022-12-28T06:11:33.580Z,35.27
2022-12-28T06:14:03.549Z,35.20
2022-12-28T06:16:32.772Z,32.30
2022-12-28T06:19:04.114Z,32.07
2022-12-28T06:21:34.067Z,33.10
2022-12-28T06:24:02.589Z,32.13
2022-12-28T06:26:33.953Z,31.80
2022-12-28T06:29:02.694Z,32.47
2022-12-28T06:31:32.674Z,32.97
2022-12-28T06:34:01.609Z,32.63
2022-12-28T06:36:31.188Z,32.83
2022-12-28T06:39:00.564Z,33.40
2022-12-28T06:41:29.317Z,31.90
2022-12-28T06:43:58.901Z,31.83
2022-12-28T06:46:28.405Z,32.20
2022-12-28T06:48:56.559Z,32.70
2022-12-28T06:51:26.503Z,33.47
2022-12-28T06:53:55.412Z,29.97
2022-12-28T06:56:24.816Z,30.63
2022-12-28T06:59:00.328Z,30.93
2022-12-28T07:01:33.758Z,30.97
2022-12-28T07:04:02.654Z,31.20
2022-12-28T07:06:31.730Z,30.70
2022-12-28T07:09:00.703Z,31.97
2022-12-28T07:11:29.249Z,30.63
2022-12-28T07:13:57.183Z,31.20
2022-12-28T07:18:58.664Z,30.40
2022-12-28T07:21:27.723Z,30.83
2022-12-28T07:23:56.648Z,30.27
2022-12-28T07:26:25.743Z,30.80
2022-12-28T07:28:55.109Z,31.50
2022-12-28T07:31:24.443Z,31.47
2022-12-28T07:33:55.704Z,30.40
2022-12-28T07:36:26.298Z,30.67
2022-12-28T07:38:54.025Z,31.20
2022-12-28T07:41:23.740Z,30.50
2022-12-28T07:43:52.091Z,29.60
2022-12-28T07:46:21.731Z,31.13
2022-12-28T07:48:50.067Z,30.77
2022-12-28T07:51:19.992Z,31.33
2022-12-28T07:53:50.541Z,32.37
2022-12-28T07:56:19.870Z,31.27
2022-12-28T08:01:18.350Z,31.80
2022-12-28T08:03:46.471Z,31.10
2022-12-28T08:06:15.975Z,32.40
2022-12-28T08:08:45.414Z,30.73
2022-12-28T08:11:16.920Z,31.43
2022-12-28T08:13:46.752Z,31.57
2022-12-28T08:16:18.287Z,30.50
2022-12-28T08:18:46.587Z,30.07
2022-12-28T08:21:16.900Z,30.00
2022-12-28T08:23:45.076Z,30.27
2022-12-28T08:26:16.918Z,30.30
2022-12-28T08:28:46.598Z,30.90
2022-12-28T08:31:16.277Z,30.73
2022-12-28T08:33:44.369Z,29.20
2022-12-28T08:36:12.138Z,29.70
2022-12-28T08:38:40.954Z,30.83
2022-12-28T08:41:12.204Z,29.50
2022-12-28T08:43:41.498Z,29.80
2022-12-28T08:46:12.758Z,28.57
2022-12-28T08:48:41.090Z,29.20
2022-12-28T08:51:11.491Z,28.13
2022-12-28T08:53:39.395Z,28.47
2022-12-28T08:56:10.368Z,30.00
2022-12-28T08:58:38.509Z,29.60
2022-12-28T09:01:12.556Z,29.80
2022-12-28T09:03:43.172Z,28.93
2022-12-28T09:06:12.836Z,28.50
2022-12-28T09:08:42.590Z,28.27
2022-12-28T09:11:13.462Z,29.23
2022-12-28T09:13:41.623Z,28.67
2022-12-28T09:16:12.685Z,29.20
2022-12-28T09:18:41.996Z,29.20
2022-12-28T09:21:13.370Z,28.40
2022-12-28T09:23:41.961Z,28.10
2022-12-28T09:26:10.811Z,30.07
2022-12-28T09:28:38.468Z,29.40
2022-12-28T09:31:07.164Z,29.50
2022-12-28T09:36:44.493Z,30.10
2022-12-28T09:39:13.753Z,28.80
2022-12-28T09:41:47.693Z,29.03
2022-12-28T09:44:51.315Z,29.10
2022-12-28T09:47:26.330Z,28.70
2022-12-28T09:50:06.144Z,29.03
2022-12-28T09:52:36.486Z,29.00
2022-12-28T09:55:13.359Z,29.53
2022-12-28T09:57:45.755Z,29.00
2022-12-28T10:00:18.608Z,29.60
2022-12-28T10:02:50.329Z,29.70
2022-12-28T10:05:21.291Z,28.90
2022-12-28T10:07:49.231Z,29.77
2022-12-28T10:10:19.174Z,29.27
2022-12-28T10:12:48.427Z,30.27
2022-12-28T10:15:16.836Z,30.60
2022-12-28T10:17:45.871Z,31.20
2022-12-28T10:20:19.984Z,30.00
2022-12-28T10:22:51.893Z,29.87
2022-12-28T10:25:24.000Z,29.67
2022-12-28T10:27:51.717Z,30.93
2022-12-28T10:30:23.979Z,30.50
2022-12-28T10:33:01.366Z,30.83
2022-12-28T10:35:43.489Z,30.33
2022-12-28T10:38:22.103Z,29.67
2022-12-28T10:40:57.772Z,29.47
2022-12-28T10:43:29.754Z,30.17
2022-12-28T10:45:59.226Z,28.10
2022-12-28T10:48:30.455Z,30.00
2022-12-28T10:51:02.965Z,29.43
2022-12-28T10:53:32.818Z,29.43
2022-12-28T10:56:07.022Z,28.83
2022-12-28T10:58:35.891Z,29.00
2022-12-28T11:03:22.107Z,29.33
2022-12-28T11:04:05.673Z,28.30
2022-12-28T11:06:36.767Z,29.43
2022-12-28T11:09:16.984Z,29.20
2022-12-28T11:11:46.347Z,29.67
2022-12-28T11:14:25.233Z,29.90
2022-12-28T11:16:53.351Z,30.20
2022-12-28T11:19:21.754Z,30.20
2022-12-28T11:21:51.409Z,29.40
2022-12-28T11:24:20.207Z,29.87
2022-12-28T11:26:50.722Z,30.37
2022-12-28T11:29:20.415Z,29.90
2022-12-28T11:31:51.981Z,29.70
2022-12-28T11:34:24.855Z,30.00
2022-12-28T11:36:53.994Z,29.50
2022-12-28T11:39:34.036Z,30.20
2022-12-28T11:42:37.209Z,30.00
2022-12-28T11:44:53.106Z,29.60
2022-12-28T11:47:33.160Z,29.50
2022-12-28T11:50:34.267Z,30.07
2022-12-28T11:53:09.066Z,29.93
2022-12-28T11:55:51.212Z,29.70
2022-12-28T11:58:44.871Z,30.03
2022-12-28T12:01:34.867Z,28.90
2022-12-28T12:04:21.283Z,29.93
2022-12-28T12:07:08.947Z,29.33
2022-12-28T12:09:44.974Z,28.80
2022-12-28T12:12:34.598Z,29.43
2022-12-28T12:15:10.476Z,29.57
2022-12-28T12:17:44.046Z,30.23
2022-12-28T12:20:23.740Z,29.43
2022-12-28T12:22:57.288Z,30.93
2022-12-28T12:25:28.907Z,30.43
2022-12-28T12:27:59.138Z,30.10
2022-12-28T12:30:28.252Z,30.33
2022-12-28T12:32:59.368Z,29.90
2022-12-28T12:35:30.173Z,31.17
2022-12-28T12:38:04.168Z,31.33
2022-12-28T12:40:54.700Z,30.57
2022-12-28T12:43:32.853Z,30.87
2022-12-28T12:46:12.469Z,30.53
2022-12-28T12:49:11.606Z,30.43
2022-12-28T12:51:47.314Z,29.83
2022-12-28T12:54:29.551Z,32.17
2022-12-28T12:57:01.500Z,30.87
2022-12-28T12:59:44.527Z,31.00
2022-12-28T13:02:42.615Z,31.20
2022-12-28T13:05:17.832Z,31.00
2022-12-28T13:07:47.058Z,30.47
2022-12-28T13:10:19.490Z,31.00
2022-12-28T13:12:47.142Z,31.10
2022-12-28T13:15:19.151Z,32.87
2022-12-28T13:18:42.906Z,31.17
2022-12-28T13:20:57.215Z,30.57
2022-12-28T13:23:27.399Z,31.03
2022-12-28T13:25:57.204Z,31.57
2022-12-28T13:28:29.953Z,31.50
2022-12-28T13:31:06.755Z,32.00
2022-12-28T13:33:34.620Z,30.97
2022-12-28T13:36:18.305Z,29.90
2022-12-28T13:38:47.341Z,30.33
2022-12-28T13:41:24.799Z,29.87
2022-12-28T13:44:29.578Z,29.33
2022-12-28T13:47:02.619Z,28.87
2022-12-28T13:49:35.262Z,29.53
2022-12-28T13:52:07.185Z,29.50
2022-12-28T13:54:37.472Z,29.50
2022-12-28T13:57:44.752Z,28.90
2022-12-28T13:59:57.307Z,28.50
2022-12-28T14:02:27.434Z,29.60
2022-12-28T14:04:56.020Z,29.10
2022-12-28T14:07:28.637Z,29.93
2022-12-28T14:09:58.441Z,30.33
2022-12-28T14:12:26.615Z,29.10
2022-12-28T14:14:54.846Z,29.23
2022-12-28T14:17:23.778Z,28.57
2022-12-28T14:19:53.283Z,29.60
2022-12-28T14:22:30.653Z,29.53
2022-12-28T14:25:05.714Z,30.50
2022-12-28T14:27:36.835Z,29.90
2022-12-28T14:30:06.653Z,29.17
2022-12-28T14:32:42.319Z,29.57
2022-12-28T14:35:18.721Z,29.97
2022-12-28T14:37:51.045Z,29.00
2022-12-28T14:40:27.551Z,28.27
2022-12-28T14:42:56.403Z,28.60
2022-12-28T14:48:34.682Z,29.67
2022-12-28T14:51:03.805Z,28.47
2022-12-28T14:53:32.121Z,28.27
2022-12-28T14:56:07.966Z,28.10
2022-12-28T14:58:50.490Z,28.00
2022-12-28T15:01:20.817Z,28.73
2022-12-28T15:03:50.944Z,27.83
2022-12-28T15:06:19.906Z,27.40
2022-12-28T15:08:49.078Z,28.83
2022-12-28T15:11:18.337Z,27.60
2022-12-28T15:13:46.139Z,25.80
2022-12-28T15:16:14.672Z,26.30
2022-12-28T15:18:44.983Z,27.33
2022-12-28T15:21:13.714Z,27.70
2022-12-28T15:23:41.630Z,28.00
2022-12-28T15:26:10.292Z,27.90
2022-12-28T15:28:39.818Z,27.33
2022-12-28T15:31:07.792Z,27.17
2022-12-28T15:33:36.055Z,27.80
2022-12-28T15:36:04.994Z,28.50
2022-12-28T15:38:33.432Z,27.53
2022-12-28T15:41:00.981Z,29.17
2022-12-28T15:43:28.701Z,29.90
2022-12-28T15:45:58.968Z,29.60
2022-12-28T15:48:31.264Z,28.70
2022-12-28T15:50:58.831Z,28.70
2022-12-28T15:53:26.371Z,27.73
2022-12-28T15:56:00.378Z,28.60
2022-12-28T15:58:28.283Z,27.00
2022-12-28T16:00:57.300Z,27.80
2022-12-28T16:03:25.061Z,27.37
2022-12-28T16:05:52.658Z,27.30
2022-12-28T16:08:20.319Z,27.70
2022-12-28T16:10:47.909Z,26.60
2022-12-28T16:13:15.511Z,26.67
2022-12-28T16:15:43.074Z,27.07
2022-12-28T16:18:12.523Z,26.67
2022-12-28T16:20:40.278Z,25.90
2022-12-28T16:23:07.855Z,26.40
2022-12-28T16:25:35.394Z,26.90
2022-12-28T16:28:03.007Z,26.13
2022-12-28T16:30:30.605Z,25.47
2022-12-28T16:32:58.167Z,25.83
2022-12-28T16:35:27.071Z,25.37
2022-12-28T16:37:54.613Z,25.43
2022-12-28T16:40:22.176Z,25.80
2022-12-28T16:42:49.739Z,25.93
2022-12-28T16:45:17.501Z,26.70
2022-12-28T16:47:45.331Z,26.30
2022-12-28T16:50:13.071Z,25.83
2022-12-28T16:52:42.001Z,27.03
2022-12-28T16:55:09.788Z,26.67
2022-12-28T16:57:37.408Z,26.63
2022-12-28T17:00:05.827Z,27.03
2022-12-28T17:02:33.594Z,25.50
2022-12-28T17:05:01.329Z,26.37
2022-12-28T17:07:28.939Z,26.20
2022-12-28T17:09:57.915Z,26.40
2022-12-28T17:12:25.485Z,27.63
2022-12-28T17:14:53.029Z,27.70
2022-12-28T17:17:20.626Z,27.60
2022-12-28T17:19:48.223Z,28.00
2022-12-28T17:22:15.925Z,27.60
2022-12-28T17:24:43.811Z,28.03
2022-12-28T17:27:18.660Z,28.20
2022-12-28T17:29:46.786Z,28.10
2022-12-28T17:32:14.364Z,28.33
2022-12-28T17:34:42.005Z,27.63
2022-12-28T17:37:09.707Z,27.93
2022-12-28T17:39:40.602Z,28.07
2022-12-28T17:42:09.158Z,28.47
2022-12-28T17:44:38.479Z,29.20
2022-12-28T17:47:06.248Z,28.40
2022-12-28T17:49:33.804Z,27.60
2022-12-28T17:52:01.342Z,27.93
2022-12-28T17:54:29.015Z,27.20
2022-12-28T17:56:56.643Z,27.77
2022-12-28T17:59:24.652Z,27.10
2022-12-28T18:01:54.058Z,27.50
2022-12-28T18:04:21.838Z,27.13
2022-12-28T18:06:49.390Z,27.00
2022-12-28T18:09:18.968Z,26.77
2022-12-28T18:11:50.048Z,26.97
2022-12-28T18:14:17.667Z,28.27
2022-12-28T18:16:45.313Z,26.80
2022-12-28T18:19:14.465Z,27.43
2022-12-28T18:21:42.197Z,26.30
2022-12-28T18:24:13.635Z,27.57
2022-12-28T18:26:41.336Z,27.20
2022-12-28T18:29:08.913Z,27.50
2022-12-28T18:31:36.474Z,29.27
2022-12-28T18:34:04.864Z,29.27
2022-12-28T18:36:33.820Z,28.90
2022-12-28T18:39:01.456Z,29.67
2022-12-28T18:41:33.730Z,28.27
2022-12-28T18:44:03.262Z,27.90
2022-12-28T18:46:30.884Z,28.77
2022-12-28T18:49:00.494Z,29.17
2022-12-28T18:51:28.439Z,29.20
2022-12-28T18:53:57.416Z,28.57
2022-12-28T18:56:24.975Z,29.40
2022-12-28T18:58:55.055Z,30.27
2022-12-28T19:02:04.804Z,29.87
2022-12-28T19:04:13.156Z,31.00
2022-12-28T19:06:41.531Z,30.40
2022-12-28T19:09:11.535Z,31.53
2022-12-28T19:11:40.361Z,30.37
2022-12-28T19:14:11.521Z,30.40
2022-12-28T19:16:39.635Z,30.37
2022-12-28T19:19:07.363Z,30.63
2022-12-28T19:21:36.280Z,31.23
2022-12-28T19:24:06.816Z,31.07
2022-12-28T19:26:36.577Z,32.27
2022-12-28T19:29:04.804Z,31.07
2022-12-28T19:31:32.906Z,33.03
2022-12-28T19:34:00.875Z,33.83
2022-12-28T19:36:28.636Z,34.70
2022-12-28T19:38:56.413Z,34.50
2022-12-28T19:41:24.838Z,35.30
2022-12-28T19:43:53.942Z,37.70
2022-12-28T19:46:23.523Z,38.63
2022-12-28T19:48:53.901Z,39.43
2022-12-28T19:51:30.061Z,38.50
2022-12-28T19:53:58.614Z,38.13
2022-12-28T19:56:26.204Z,38.80
2022-12-28T19:59:01.154Z,39.37
2022-12-28T20:01:33.171Z,38.03
2022-12-28T20:04:01.059Z,39.77
2022-12-28T20:06:30.422Z,38.00
2022-12-28T20:08:59.828Z,37.63
2022-12-28T20:11:28.725Z,38.10
2022-12-28T20:14:00.463Z,38.07
2022-12-28T20:16:32.718Z,38.40
2022-12-28T20:19:01.642Z,36.47
2022-12-28T20:21:29.321Z,37.23
2022-12-28T20:23:57.325Z,36.70
2022-12-28T20:26:27.425Z,36.30
2022-12-28T20:28:56.335Z,37.23
2022-12-28T20:31:26.285Z,37.63
2022-12-28T20:33:54.306Z,36.10
2022-12-28T20:36:23.802Z,36.40
2022-12-28T20:38:52.117Z,34.43
2022-12-28T20:41:38.679Z,35.30
2022-12-28T20:44:08.801Z,36.03
2022-12-28T20:46:38.246Z,35.67
2022-12-28T20:49:06.575Z,34.40
2022-12-28T20:51:34.924Z,35.53
2022-12-28T20:54:02.484Z,36.07
2022-12-28T20:56:30.129Z,35.57
2022-12-28T20:58:57.816Z,34.80
2022-12-28T21:01:25.873Z,35.93
2022-12-28T21:03:54.970Z,35.00
2022-12-28T21:06:22.847Z,34.50
2022-12-28T21:08:50.442Z,34.93
2022-12-28T21:11:18.031Z,32.80
2022-12-28T21:13:45.643Z,32.30
2022-12-28T21:16:14.271Z,32.93
2022-12-28T21:18:42.305Z,32.20
2022-12-28T21:21:16.340Z,32.93
2022-12-28T21:23:44.053Z,32.10
2022-12-28T21:26:14.349Z,32.43
2022-12-28T21:28:42.395Z,31.80
2022-12-28T21:31:10.578Z,31.43
2022-12-28T21:33:39.350Z,31.80
2022-12-28T21:36:09.584Z,31.63
2022-12-28T21:38:40.795Z,31.33
2022-12-28T21:41:10.622Z,31.53
2022-12-28T21:43:38.471Z,31.70
2022-12-28T21:46:09.131Z,30.70
2022-12-28T21:48:38.240Z,30.53
2022-12-28T21:51:27.883Z,30.80
2022-12-28T21:53:57.172Z,30.63
2022-12-28T21:56:25.018Z,30.53
2022-12-28T21:58:52.656Z,29.87
2022-12-28T22:01:37.804Z,29.47
2022-12-28T22:04:23.505Z,30.20
2022-12-28T22:06:51.070Z,29.27
2022-12-28T22:09:37.598Z,30.30
2022-12-28T22:12:23.232Z,27.90
2022-12-28T22:15:10.831Z,28.60
2022-12-28T22:17:38.491Z,28.90
2022-12-28T22:20:07.056Z,29.10
2022-12-28T22:22:34.741Z,29.20
2022-12-28T22:25:03.758Z,29.10
2022-12-28T22:27:31.372Z,29.27
2022-12-28T22:29:59.048Z,28.30
2022-12-28T22:32:26.876Z,28.77
2022-12-28T22:34:54.458Z,28.27
2022-12-28T22:37:22.056Z,29.03
2022-12-28T22:39:49.633Z,28.50
2022-12-28T22:42:18.675Z,29.80
2022-12-28T22:44:46.261Z,29.50
2022-12-28T22:47:13.887Z,29.60
2022-12-28T22:49:41.476Z,29.70
2022-12-28T22:52:09.096Z,29.50
2022-12-28T22:54:36.741Z,30.10
2022-12-28T22:57:06.966Z,30.20
2022-12-28T22:59:36.102Z,29.40
2022-12-28T23:02:03.846Z,30.70
2022-12-28T23:04:31.708Z,29.33
2022-12-28T23:07:03.514Z,29.80
2022-12-28T23:09:31.954Z,30.67
2022-12-28T23:11:59.573Z,29.53
2022-12-28T23:14:45.325Z,29.67
2022-12-28T23:17:16.355Z,29.60
2022-12-28T23:20:01.784Z,29.80
2022-12-28T23:22:49.295Z,31.03
2022-12-28T23:25:36.733Z,29.70
2022-12-28T23:28:06.557Z,29.70
2022-12-28T23:30:34.892Z,29.43
2022-12-28T23:33:04.109Z,30.63
2022-12-28T23:35:31.801Z,31.20
2022-12-28T23:37:59.465Z,30.70
2022-12-28T23:40:27.546Z,31.33
2022-12-28T23:42:55.452Z,31.50
2022-12-28T23:45:23.370Z,31.30
2022-12-28T23:47:53.652Z,32.80
2022-12-28T23:50:23.205Z,31.97
2022-12-28T23:52:50.792Z,32.93
2022-12-28T23:55:18.547Z,34.00
2022-12-28T23:57:46.227Z,33.77
